Time;durP1;ratioP1;P1;durP2;ratioP2;P2;SDS_P1;SDS_P2;PMS_P1;PMS_P2;Temp;Humidity;BMP_temperature;BMP_pressure;BME280_temperature;BME280_humidity;BME280_pressure;Samples;Min_cycle;Max_cycle;Signal;HPM_P1;HPM_P2
2023/09/04 04:22:33;;;;;;;8.15;4.80;;;;;;;15.19;100.00;101167.06;5089470;28;20398;-68
2023/09/04 04:24:58;;;;;;;6.55;4.60;;;;;;;15.16;100.00;101157.56;5089557;28;20048;-68
2023/09/04 04:27:24;;;;;;;6.30;4.50;;;;;;;15.22;100.00;101161.38;5089279;28;20032;-68
2023/09/04 04:29:52;;;;;;;8.07;4.78;;;;;;;15.25;100.00;101162.84;5089387;28;20086;-68
2023/09/04 04:32:17;;;;;;;6.35;4.18;;;;;;;15.26;100.00;101157.31;5089391;28;20563;-68
2023/09/04 04:34:43;;;;;;;7.25;4.63;;;;;;;15.26;100.00;101170.72;5087974;28;20043;-66
2023/09/04 04:37:10;;;;;;;6.72;4.40;;;;;;;15.28;100.00;101157.94;5087859;28;20044;-66
2023/09/04 04:39:37;;;;;;;6.22;4.03;;;;;;;15.32;100.00;101161.97;5087713;28;20060;-66
2023/09/04 04:42:02;;;;;;;8.68;4.47;;;;;;;15.27;100.00;101152.78;5089219;28;20447;-65
2023/09/04 04:44:29;;;;;;;7.63;4.47;;;;;;;15.31;100.00;101154.91;5087754;28;20060;-68
2023/09/04 04:46:55;;;;;;;6.90;4.55;;;;;;;15.29;100.00;101151.56;5088922;28;20079;-68
2023/09/04 04:49:22;;;;;;;6.22;4.20;;;;;;;15.28;100.00;101149.91;5087707;28;20040;-68
2023/09/04 04:51:54;;;;;;;7.28;4.18;;;;;;;15.32;100.00;101153.91;5087532;28;20045;-68
2023/09/04 04:54:20;;;;;;;5.85;4.57;;;;;;;15.32;100.00;101145.84;5087672;28;20048;-67
2023/09/04 04:56:49;;;;;;;5.43;4.10;;;;;;;15.33;100.00;101146.69;5087511;28;20074;-67
2023/09/04 04:59:15;;;;;;;7.45;3.80;;;;;;;15.37;100.00;101147.97;5087189;28;20056;-68
2023/09/04 05:01:43;;;;;;;7.68;4.18;;;;;;;15.36;100.00;101141.75;5087345;28;20032;-68
2023/09/04 05:04:09;;;;;;;4.95;3.58;;;;;;;15.42;100.00;101141.03;5087481;28;20016;-68
2023/09/04 05:06:34;;;;;;;5.88;4.30;;;;;;;15.42;100.00;101143.72;5087373;28;20192;-68
2023/09/04 05:09:00;;;;;;;6.05;4.18;;;;;;;15.43;100.00;101141.88;5087289;28;20048;-67
2023/09/04 05:11:26;;;;;;;5.07;3.90;;;;;;;15.48;100.00;101142.16;5088348;28;20059;-67
2023/09/04 05:13:52;;;;;;;5.35;3.67;;;;;;;15.49;100.00;101135.75;5073463;28;20124;-68
2023/09/04 05:16:18;;;;;;;4.93;3.53;;;;;;;15.48;100.00;101134.94;5086796;28;20558;-67
2023/09/04 05:18:43;;;;;;;7.70;4.03;;;;;;;15.57;100.00;101137.53;5087009;28;20024;-68
2023/09/04 05:21:09;;;;;;;8.70;3.95;;;;;;;15.59;100.00;101135.50;5086742;28;20460;-67
2023/09/04 05:23:35;;;;;;;6.43;3.80;;;;;;;15.61;100.00;101136.16;5087089;28;20122;-65
2023/09/04 05:26:00;;;;;;;6.15;4.47;;;;;;;15.65;100.00;101140.19;5086907;28;20058;-65
2023/09/04 05:28:26;;;;;;;6.93;4.13;;;;;;;15.66;100.00;101131.94;5088139;28;20093;-65
2023/09/04 05:30:51;;;;;;;6.70;4.35;;;;;;;15.67;100.00;101132.75;5086945;28;20036;-65
2023/09/04 05:33:17;;;;;;;5.68;4.35;;;;;;;15.67;100.00;101132.75;5078224;28;20064;-65
2023/09/04 05:35:42;;;;;;;6.78;4.28;;;;;;;15.66;100.00;101129.25;5074568;28;20407;-65
2023/09/04 05:38:08;;;;;;;5.47;3.83;;;;;;;15.71;100.00;101126.84;5074617;28;20483;-65
2023/09/04 05:40:33;;;;;;;5.35;4.18;;;;;;;15.76;100.00;101131.63;5072935;28;20432;-65
2023/09/04 05:42:59;;;;;;;7.22;3.60;;;;;;;15.80;100.00;101130.25;5074430;28;20054;-65
2023/09/04 05:45:25;;;;;;;6.88;4.30;;;;;;;15.82;100.00;101122.84;5074388;28;20495;-65
2023/09/04 05:47:51;;;;;;;8.48;4.00;;;;;;;15.89;100.00;101126.44;5074417;28;20032;-65
2023/09/04 05:50:16;;;;;;;7.15;3.50;;;;;;;15.94;100.00;101124.03;5074176;28;20069;-65
2023/09/04 05:52:42;;;;;;;5.20;3.53;;;;;;;16.00;100.00;101125.97;5074374;28;20040;-65
2023/09/04 05:55:08;;;;;;;4.95;3.88;;;;;;;16.12;100.00;101128.19;5074246;28;20033;-65
2023/09/04 05:57:35;;;;;;;4.78;4.07;;;;;;;16.19;100.00;101126.41;5074098;28;20039;-65
2023/09/04 06:00:00;;;;;;;7.43;3.80;;;;;;;16.24;100.00;101137.44;5073941;28;20068;-65
2023/09/04 06:02:27;;;;;;;6.15;3.47;;;;;;;16.29;100.00;101129.63;5074130;28;20102;-66
2023/09/04 06:04:52;;;;;;;6.15;3.63;;;;;;;16.37;100.00;101136.75;5074127;28;20098;-65
2023/09/04 06:07:18;;;;;;;4.70;3.38;;;;;;;16.41;100.00;101128.09;5074110;28;20486;-64
2023/09/04 06:09:44;;;;;;;6.03;3.20;;;;;;;16.51;100.00;101130.50;5073822;28;20131;-65
2023/09/04 06:12:11;;;;;;;5.00;3.70;;;;;;;16.58;100.00;101133.25;5073517;28;20113;-65
2023/09/04 06:14:37;;;;;;;4.97;3.67;;;;;;;16.63;100.00;101131.66;5061557;28;20033;-63
2023/09/04 06:17:03;;;;;;;4.80;3.17;;;;;;;16.69;100.00;101130.03;5063403;28;20033;-65
2023/09/04 06:19:28;;;;;;;5.03;3.58;;;;;;;16.75;100.00;101129.31;5063929;28;20043;-65
2023/09/04 06:21:54;;;;;;;3.70;3.20;;;;;;;16.80;100.00;101129.56;5062052;28;20037;-65
2023/09/04 06:24:20;;;;;;;4.85;3.70;;;;;;;16.88;100.00;101133.97;5064163;28;20111;-65
2023/09/04 06:26:45;;;;;;;5.40;3.33;;;;;;;16.92;100.00;101122.66;5063111;28;20029;-64
2023/09/04 06:29:11;;;;;;;6.05;3.40;;;;;;;17.00;100.00;101121.66;5062288;28;20564;-65
2023/09/04 06:31:36;;;;;;;6.25;3.70;;;;;;;17.07;100.00;101126.06;5064123;28;20025;-65
2023/09/04 06:34:03;;;;;;;4.93;3.60;;;;;;;17.12;100.00;101121.97;5062588;28;20116;-66
2023/09/04 06:36:29;;;;;;;6.63;3.42;;;;;;;17.20;100.00;101122.66;5070528;28;20032;-65
2023/09/04 06:38:54;;;;;;;4.35;3.17;;;;;;;17.23;100.00;101121.47;5073327;28;20040;-65
2023/09/04 06:41:21;;;;;;;4.80;3.63;;;;;;;17.31;100.00;101116.75;5073168;28;20044;-65
2023/09/04 06:43:47;;;;;;;4.50;3.13;;;;;;;17.34;100.00;101121.75;5072879;28;20458;-65
2023/09/04 06:46:12;;;;;;;4.93;3.40;;;;;;;17.42;100.00;101126.16;5072928;28;20067;-65
2023/09/04 06:48:38;;;;;;;4.78;3.22;;;;;;;17.50;100.00;101117.09;5071963;28;20040;-60
2023/09/04 06:51:04;;;;;;;4.28;3.40;;;;;;;17.52;100.00;101113.16;5073124;28;20111;-56
2023/09/04 06:53:29;;;;;;;4.30;3.38;;;;;;;17.60;100.00;101114.84;5073150;28;20694;-59
2023/09/04 06:55:55;;;;;;;4.20;3.53;;;;;;;17.63;100.00;101115.28;5072992;28;20044;-58
2023/09/04 06:58:20;;;;;;;5.47;3.90;;;;;;;17.75;100.00;101114.78;5072989;28;20029;-62
2023/09/04 07:00:46;;;;;;;4.68;4.13;;;;;;;17.83;100.00;101111.91;5072676;28;20040;-58
2023/09/04 07:03:11;;;;;;;3.95;2.85;;;;;;;17.94;100.00;101111.34;5072977;28;20415;-61
2023/09/04 07:05:37;;;;;;;4.78;3.42;;;;;;;18.03;100.00;101103.91;5072826;28;20037;-60
2023/09/04 07:08:04;;;;;;;5.55;3.25;;;;;;;18.16;99.36;101114.75;5072944;28;20040;-59
2023/09/04 07:10:30;;;;;;;4.95;3.70;;;;;;;18.16;98.52;101093.19;5072670;28;20044;-61
2023/09/04 07:12:55;;;;;;;4.30;3.25;;;;;;;18.31;98.88;101106.50;5072810;28;20056;-59
2023/09/04 07:15:21;;;;;;;4.80;3.22;;;;;;;18.38;98.81;101102.75;5072876;28;20502;-62
2023/09/04 07:17:46;;;;;;;4.03;3.30;;;;;;;18.47;96.95;101108.00;5072742;28;20035;-59
2023/09/04 07:20:12;;;;;;;3.78;3.25;;;;;;;18.55;98.10;101099.72;5072178;28;20036;-61
2023/09/04 07:22:37;;;;;;;6.30;3.40;;;;;;;18.60;96.07;101100.75;5072665;28;20037;-59
2023/09/04 07:25:04;;;;;;;3.88;3.00;;;;;;;18.74;95.40;101098.09;5072576;28;20495;-60
2023/09/04 07:27:29;;;;;;;4.18;3.10;;;;;;;18.79;94.92;101109.13;5072628;28;20111;-58
2023/09/04 07:29:55;;;;;;;5.47;3.67;;;;;;;18.86;93.59;101096.47;5072225;28;20186;-59
2023/09/04 07:32:21;;;;;;;4.53;3.40;;;;;;;18.95;94.21;101100.59;5072515;28;20035;-59
2023/09/04 07:34:46;;;;;;;4.97;3.30;;;;;;;19.07;92.48;101092.72;5072494;28;20036;-57
2023/09/04 07:37:12;;;;;;;4.30;2.97;;;;;;;19.10;94.23;101093.09;5072362;28;20082;-59
2023/09/04 07:39:37;;;;;;;3.92;3.20;;;;;;;19.22;93.61;101094.13;5072222;28;20360;-60
2023/09/04 07:42:03;;;;;;;4.20;2.90;;;;;;;19.29;92.49;101096.84;5072221;28;20040;-57
2023/09/04 07:44:28;;;;;;;10.93;4.32;;;;;;;19.44;92.22;101096.63;5072254;28;20033;-58
2023/09/04 07:46:54;;;;;;;4.88;3.15;;;;;;;19.50;92.12;101090.38;5072269;28;20136;-60
2023/09/04 07:49:19;;;;;;;4.63;3.22;;;;;;;19.59;90.78;101088.28;5071935;28;20040;-61
2023/09/04 07:51:45;;;;;;;3.80;3.28;;;;;;;19.68;90.09;101095.94;5072240;28;20056;-58
2023/09/04 07:54:11;;;;;;;5.05;3.25;;;;;;;19.75;90.79;101090.53;5072160;28;20473;-60
2023/09/04 07:56:37;;;;;;;3.88;2.80;;;;;;;19.85;89.36;101088.22;5071985;28;20045;-57
2023/09/04 07:59:04;;;;;;;3.77;3.20;;;;;;;19.97;89.54;101091.06;5071953;28;20597;-59
2023/09/04 08:01:30;;;;;;;4.68;3.00;;;;;;;20.03;89.36;101093.75;5071759;28;20036;-56
2023/09/04 08:03:56;;;;;;;4.60;2.92;;;;;;;20.12;87.39;101094.31;5071964;28;20044;-60
2023/09/04 08:06:22;;;;;;;5.47;3.50;;;;;;;20.21;87.12;101090.34;5071874;28;20402;-62
2023/09/04 08:08:47;;;;;;;4.50;3.38;;;;;;;20.30;86.08;101089.03;5071839;28;20044;-61
2023/09/04 08:11:12;;;;;;;4.70;3.30;;;;;;;20.35;86.54;101091.09;5071449;28;20033;-59
2023/09/04 08:13:38;;;;;;;4.82;3.17;;;;;;;20.51;84.30;101090.59;5071905;28;20437;-62
2023/09/04 08:16:04;;;;;;;3.30;2.95;;;;;;;20.57;84.25;101100.56;5071866;28;20043;-59
2023/09/04 08:18:29;;;;;;;3.85;3.08;;;;;;;20.61;84.44;101097.41;5071842;28;20411;-60
2023/09/04 08:20:55;;;;;;;3.20;2.85;;;;;;;20.69;83.90;101097.97;5071365;28;20105;-59
2023/09/04 08:23:20;;;;;;;4.75;3.10;;;;;;;20.79;82.88;101095.59;5071710;28;20040;-62
2023/09/04 08:25:45;;;;;;;2.90;2.58;;;;;;;20.84;82.34;101093.06;5071686;28;20105;-61
2023/09/04 08:28:11;;;;;;;3.70;3.00;;;;;;;20.86;83.15;101085.56;5071747;28;20517;-59
2023/09/04 08:30:36;;;;;;;3.45;2.75;;;;;;;20.99;81.79;101089.19;5071412;28;20162;-59
2023/09/04 08:33:02;;;;;;;3.63;2.95;;;;;;;21.05;83.01;101088.31;5071803;28;20033;-54
2023/09/04 08:35:29;;;;;;;3.47;2.70;;;;;;;21.12;81.97;101089.91;5071633;28;20387;-59
2023/09/04 08:37:56;;;;;;;4.43;2.75;;;;;;;21.24;80.86;101090.00;5071790;28;20386;-59
2023/09/04 08:40:22;;;;;;;3.70;2.70;;;;;;;21.30;81.05;101083.72;5071414;28;20518;-61
2023/09/04 08:42:49;;;;;;;4.05;3.03;;;;;;;21.42;79.61;101088.41;5071629;28;20072;-58
2023/09/04 08:45:18;;;;;;;6.57;3.25;;;;;;;21.46;79.48;101085.03;5071521;28;20044;-60
2023/09/04 08:47:44;;;;;;;2.88;2.55;;;;;;;21.55;78.34;101077.44;5071644;28;20071;-61
2023/09/04 08:50:13;;;;;;;5.03;2.72;;;;;;;21.62;78.21;101073.59;5071260;28;20064;-61
2023/09/04 08:52:41;;;;;;;3.17;2.67;;;;;;;21.72;78.28;101078.50;5071440;28;20123;-59
2023/09/04 08:55:08;;;;;;;3.38;2.95;;;;;;;21.82;77.30;101073.34;5071355;28;20040;-60
2023/09/04 08:57:33;;;;;;;4.50;2.90;;;;;;;21.88;76.40;101067.00;5071665;28;20491;-58
2023/09/04 08:59:59;;;;;;;3.28;2.70;;;;;;;22.00;76.04;101079.81;5071149;28;20124;-60
2023/09/04 09:02:25;;;;;;;3.30;2.65;;;;;;;22.08;74.85;101068.66;5071372;28;20510;-59
2023/09/04 09:04:52;;;;;;;4.70;2.70;;;;;;;22.24;74.54;101076.19;5071391;28;20068;-61
2023/09/04 09:07:20;;;;;;;3.58;2.47;;;;;;;22.35;74.63;101072.66;5071766;28;20035;-60
2023/09/04 09:09:49;;;;;;;3.10;2.55;;;;;;;22.43;73.60;101072.34;5074798;28;20032;-58
2023/09/04 09:12:15;;;;;;;4.53;2.67;;;;;;;22.50;71.92;101074.97;5074896;28;20074;-56
2023/09/04 09:14:40;;;;;;;4.40;2.22;;;;;;;22.62;73.00;101075.81;5075017;28;20036;-59
2023/09/04 09:17:14;;;;;;;3.53;2.90;;;;;;;22.75;70.53;101078.31;5074922;28;20473;-58
2023/09/04 09:19:41;;;;;;;5.50;2.60;;;;;;;22.83;69.97;101069.03;5074723;28;20047;-59
2023/09/04 09:22:14;;;;;;;3.03;2.72;;;;;;;22.92;68.70;101067.63;5074833;28;20039;-61
2023/09/04 09:24:59;;;;;;;3.10;2.65;;;;;;;23.08;68.40;101067.97;5074879;28;20040;-58
2023/09/04 09:27:29;;;;;;;3.13;2.47;;;;;;;23.24;68.37;101067.28;5074734;28;20036;-57
2023/09/04 09:29:59;;;;;;;3.03;2.55;;;;;;;23.36;66.23;101068.09;5074523;28;20047;-58
2023/09/04 09:32:30;;;;;;;5.75;2.50;;;;;;;23.52;67.94;101064.66;5074880;28;20060;-57
2023/09/04 09:34:57;;;;;;;2.78;2.45;;;;;;;23.70;66.52;101068.31;5074687;28;20080;-58
2023/09/04 09:37:25;;;;;;;4.03;2.45;;;;;;;23.68;64.31;101071.28;5074603;28;20056;-59
2023/09/04 09:39:50;;;;;;;3.97;3.17;;;;;;;23.89;63.58;101066.25;5074325;28;20085;-61
2023/09/04 09:42:16;;;;;;;4.68;2.45;;;;;;;24.08;63.90;101063.09;5074649;28;20028;-61
2023/09/04 09:44:42;;;;;;;5.88;2.47;;;;;;;24.18;61.99;101057.00;5074633;28;20044;-60
2023/09/04 09:47:10;;;;;;;2.78;2.50;;;;;;;24.41;60.80;101060.75;5074392;28;20040;-61
2023/09/04 09:49:36;;;;;;;4.90;2.60;;;;;;;24.55;60.39;101060.16;5074252;28;20043;-61
2023/09/04 09:52:05;;;;;;;2.60;2.28;;;;;;;24.71;58.54;101053.06;5074385;28;20021;-62
2023/09/04 09:54:38;;;;;;;3.97;2.47;;;;;;;24.89;57.35;101054.72;5074404;28;20437;-62
2023/09/04 09:57:08;;;;;;;2.88;2.20;;;;;;;25.05;55.67;101047.66;5074244;28;20036;-60
2023/09/04 09:59:40;;;;;;;2.22;2.03;;;;;;;25.30;55.63;101041.72;5073951;28;20036;-59
2023/09/04 10:02:06;;;;;;;3.88;2.70;;;;;;;25.49;54.54;101037.63;5074145;28;20445;-60
2023/09/04 10:04:33;;;;;;;4.22;2.50;;;;;;;25.81;52.64;101042.41;5074189;28;20040;-61
2023/09/04 10:07:03;;;;;;;2.95;2.45;;;;;;;26.14;51.87;101052.31;5074081;28;20108;-61
2023/09/04 10:09:44;;;;;;;4.07;2.20;;;;;;;26.54;49.64;101041.03;5073785;28;20044;-60
2023/09/04 10:12:20;;;;;;;3.25;2.25;;;;;;;26.98;48.60;101032.59;5073909;28;20032;-57
2023/09/04 10:14:48;;;;;;;2.17;1.83;;;;;;;27.44;46.84;101041.91;5074019;28;20041;-58
2023/09/04 10:17:30;;;;;;;4.25;2.35;;;;;;;27.63;46.50;101034.06;5073808;28;20086;-59
2023/09/04 10:20:01;;;;;;;2.63;2.10;;;;;;;28.01;44.61;101037.50;5067347;28;20033;-58
2023/09/04 10:22:43;;;;;;;2.50;2.10;;;;;;;28.17;44.11;101028.22;5062878;28;20536;-61
2023/09/04 10:25:34;;;;;;;3.78;2.22;;;;;;;28.67;43.66;101030.19;5063925;28;20033;-61
2023/09/04 10:28:07;;;;;;;4.35;2.30;;;;;;;29.04;41.87;101025.53;5053230;28;20044;-59
2023/09/04 10:30:36;;;;;;;3.13;2.03;;;;;;;29.10;42.76;101018.94;5063873;28;20503;-60
2023/09/04 10:33:02;;;;;;;2.63;2.20;;;;;;;29.35;41.71;101012.53;5062865;28;20033;-60
2023/09/04 10:35:27;;;;;;;4.82;2.35;;;;;;;29.66;40.57;101016.00;5061336;28;20043;-61
2023/09/04 10:37:54;;;;;;;2.15;1.90;;;;;;;29.70;40.07;101006.09;5063972;28;20033;-57
2023/09/04 10:40:21;;;;;;;3.85;2.22;;;;;;;29.82;39.36;101012.06;5062413;28;20041;-60
2023/09/04 10:42:47;;;;;;;2.72;2.42;;;;;;;29.64;40.24;101005.31;5061306;28;20394;-59
2023/09/04 10:45:14;;;;;;;2.08;1.88;;;;;;;30.13;38.93;101004.50;5063915;28;20032;-56
2023/09/04 10:47:46;;;;;;;;;;;;;;;30.16;38.67;101001.16;5062785;28;20036;-56
2023/09/04 10:50:29;;;;;;;3.80;2.33;;;;;;;30.32;38.33;101001.91;5067182;28;20302;-58
2023/09/04 10:53:00;;;;;;;1.83;1.50;;;;;;;30.69;37.44;100986.75;5073127;28;20045;-59
2023/09/04 10:55:27;;;;;;;5.13;1.70;;;;;;;30.85;36.67;100987.41;5073032;28;20158;-60
2023/09/04 10:57:56;;;;;;;3.28;1.88;;;;;;;30.98;35.89;100975.72;5073102;28;20044;-59
2023/09/04 11:00:29;;;;;;;3.75;1.85;;;;;;;30.76;36.12;100978.97;5072953;28;20089;-56
2023/09/04 11:02:55;;;;;;;2.30;2.10;;;;;;;31.24;35.54;100979.84;5072948;28;20119;-58
2023/09/04 11:05:21;;;;;;;4.72;2.00;;;;;;;31.44;36.04;100973.28;5072913;28;20033;-58
2023/09/04 11:07:46;;;;;;;2.77;1.90;;;;;;;31.29;36.15;100965.19;5072857;28;20045;-61
2023/09/04 11:10:17;;;;;;;2.23;1.90;;;;;;;31.90;34.22;100969.91;5072660;28;20040;-56
2023/09/04 11:12:45;;;;;;;1.92;1.70;;;;;;;31.63;34.48;100967.78;5072767;28;20097;-64
2023/09/04 11:15:12;;;;;;;2.15;1.95;;;;;;;31.79;33.91;100969.22;5072734;28;20028;-64
2023/09/04 11:17:41;;;;;;;2.97;2.03;;;;;;;32.49;33.61;100968.41;5072660;28;20044;-64
2023/09/04 11:20:09;;;;;;;2.30;1.83;;;;;;;32.56;33.29;100973.53;5072242;28;20036;-65
2023/09/04 11:22:34;;;;;;;2.28;1.70;;;;;;;32.36;32.71;100970.00;5072557;28;20029;-63
2023/09/04 11:25:00;;;;;;;2.83;1.60;;;;;;;32.57;32.81;100973.22;5072623;28;20050;-64
2023/09/04 11:27:26;;;;;;;3.17;1.98;;;;;;;32.98;31.78;100966.16;5072429;28;20029;-64
2023/09/04 11:29:52;;;;;;;2.00;1.80;;;;;;;32.92;31.19;100969.00;5071886;28;20042;-64
2023/09/04 11:32:19;;;;;;;4.00;1.80;;;;;;;33.28;30.73;100957.25;5072260;28;20037;-64
2023/09/04 11:34:49;;;;;;;2.00;1.73;;;;;;;33.53;30.12;100957.88;5072453;28;20036;-67
2023/09/04 11:37:15;;;;;;;3.38;2.00;;;;;;;33.55;29.91;100956.41;5072245;28;20090;-64
2023/09/04 11:39:54;;;;;;;2.93;1.80;;;;;;;33.48;29.08;100953.25;5072117;28;20037;-64
2023/09/04 11:42:21;;;;;;;4.07;1.80;;;;;;;33.47;29.76;100946.94;5072187;28;20040;-64
2023/09/04 11:44:46;;;;;;;2.00;1.70;;;;;;;33.50;29.50;100944.66;5072363;28;20125;-64
2023/09/04 11:47:12;;;;;;;1.90;1.60;;;;;;;33.69;29.35;100943.38;5072312;28;20064;-64
2023/09/04 11:49:38;;;;;;;1.90;1.63;;;;;;;33.84;28.97;100939.44;5071945;28;20041;-64
2023/09/04 11:52:04;;;;;;;2.07;1.73;;;;;;;34.00;28.52;100939.94;5072106;28;20316;-65
2023/09/04 11:54:30;;;;;;;1.88;1.63;;;;;;;33.97;28.67;100933.09;5072063;28;20484;-64
2023/09/04 11:56:57;;;;;;;;;;;;;;;33.60;29.54;100936.97;5072479;28;20112;-64
2023/09/04 11:59:22;;;;;;;4.22;2.00;;;;;;;33.91;29.74;100928.00;5071818;28;19923;-64
2023/09/04 12:01:48;;;;;;;3.00;1.80;;;;;;;34.31;29.06;100923.41;5072121;28;20032;-64
2023/09/04 12:04:13;;;;;;;2.43;1.97;;;;;;;34.34;28.90;100925.50;5072022;28;20037;-65
2023/09/04 12:06:39;;;;;;;1.87;1.77;;;;;;;34.12;29.28;100923.59;5072054;28;20495;-64
2023/09/04 12:09:05;;;;;;;2.43;2.00;;;;;;;34.56;28.58;100919.16;5066073;28;20048;-65
2023/09/04 12:11:31;;;;;;;2.45;1.70;;;;;;;34.87;27.15;100921.06;5060540;28;20112;-65
2023/09/04 12:14:06;;;;;;;3.20;1.90;;;;;;;34.36;27.14;100906.66;5061801;28;20124;-65
2023/09/04 12:16:31;;;;;;;2.25;1.90;;;;;;;34.86;27.62;100913.91;5060863;28;20042;-65
2023/09/04 12:18:59;;;;;;;2.00;1.80;;;;;;;34.59;27.73;100906.66;5061918;28;20025;-65
2023/09/04 12:21:25;;;;;;;2.95;2.08;;;;;;;33.19;28.61;100898.38;5060161;28;20043;-64
2023/09/04 12:23:50;;;;;;;5.43;1.87;;;;;;;34.27;28.24;100908.56;5045673;28;20115;-64
2023/09/04 12:26:16;;;;;;;4.63;2.40;;;;;;;35.13;27.95;100899.03;5061365;28;20033;-64
2023/09/04 12:28:43;;;;;;;2.03;1.60;;;;;;;35.35;26.52;100896.16;5044139;28;20433;-64
2023/09/04 12:31:09;;;;;;;;;;;;;;;35.12;27.07;100895.44;5060320;28;20119;-64
2023/09/04 12:33:40;;;;;;;2.03;1.80;;;;;;;35.42;26.37;100892.94;5061324;28;19958;-64
2023/09/04 12:36:10;;;;;;;2.85;2.00;;;;;;;35.31;25.37;100882.13;5062186;28;20127;-65
2023/09/04 12:38:36;;;;;;;2.83;1.90;;;;;;;35.35;25.56;100876.75;5061251;28;20592;-64
2023/09/04 12:41:03;;;;;;;2.83;1.85;;;;;;;35.37;25.41;100877.25;5060449;28;20068;-65
2023/09/04 12:43:28;;;;;;;2.42;1.98;;;;;;;35.76;24.41;100875.47;5064587;28;20037;-64
2023/09/04 12:45:53;;;;;;;2.23;1.80;;;;;;;35.77;25.57;100886.22;5064740;28;20076;-64
2023/09/04 12:48:19;;;;;;;2.17;1.97;;;;;;;35.37;25.54;100874.47;5065088;28;20086;-65
2023/09/04 12:50:45;;;;;;;3.60;1.80;;;;;;;34.95;25.41;100874.09;5065940;28;20041;-64
2023/09/04 12:53:10;;;;;;;2.57;2.00;;;;;;;34.96;25.44;100872.97;5063294;28;20039;-65
2023/09/04 12:55:35;;;;;;;2.30;2.10;;;;;;;34.96;26.09;100869.38;5065243;28;20501;-65
2023/09/04 12:58:12;;;;;;;2.53;1.83;;;;;;;35.17;25.60;100864.84;5049482;28;20582;-65
2023/09/04 13:00:40;;;;;;;2.13;1.83;;;;;;;35.60;25.56;100855.75;5057708;28;20033;-65
2023/09/04 13:03:06;;;;;;;2.38;1.83;;;;;;;35.86;25.88;100864.88;5063336;28;20055;-65
2023/09/04 13:05:32;;;;;;;3.13;1.98;;;;;;;35.68;25.59;100860.50;5065101;28;20063;-65
2023/09/04 13:07:58;;;;;;;3.27;2.17;;;;;;;36.15;25.37;100855.84;5057112;28;20195;-65
2023/09/04 13:10:23;;;;;;;3.17;2.00;;;;;;;35.83;25.53;100854.44;5075015;28;20051;-65
2023/09/04 13:12:49;;;;;;;3.03;2.00;;;;;;;35.83;25.08;100842.53;5075073;28;20040;-65
2023/09/04 13:15:15;;;;;;;2.93;1.90;;;;;;;35.63;25.08;100835.72;5075023;28;20029;-65
2023/09/04 13:17:41;;;;;;;5.00;1.90;;;;;;;35.33;25.54;100835.53;5074961;28;20044;-65
2023/09/04 13:20:10;;;;;;;2.20;2.00;;;;;;;35.70;25.23;100838.81;5074583;28;20032;-65
2023/09/04 13:22:42;;;;;;;1.75;1.60;;;;;;;35.66;24.74;100839.78;5074892;28;20041;-65
2023/09/04 13:25:08;;;;;;;2.83;1.90;;;;;;;35.39;26.10;100832.59;5074708;28;20093;-65
2023/09/04 13:27:36;;;;;;;2.92;2.17;;;;;;;35.85;25.60;100835.50;5074847;28;20104;-65
2023/09/04 13:30:02;;;;;;;4.60;2.10;;;;;;;36.16;24.45;100826.19;5074595;28;20042;-65
2023/09/04 13:32:28;;;;;;;2.20;2.00;;;;;;;36.19;24.36;100817.22;5074664;28;20054;-65
2023/09/04 13:34:53;;;;;;;2.30;1.80;;;;;;;36.22;24.48;100819.31;5074733;28;20493;-63
2023/09/04 13:37:18;;;;;;;2.83;2.10;;;;;;;36.39;25.03;100816.50;5074674;28;20043;-64
2023/09/04 13:39:44;;;;;;;2.33;1.90;;;;;;;35.96;24.37;100802.75;5074341;28;20032;-64
2023/09/04 13:42:09;;;;;;;2.70;1.80;;;;;;;35.55;25.34;100812.44;5074667;28;20040;-64
2023/09/04 13:44:35;;;;;;;2.13;1.90;;;;;;;35.86;25.01;100797.53;5074485;28;20402;-64
2023/09/04 13:47:00;;;;;;;3.10;1.90;;;;;;;35.59;24.71;100799.53;5074565;28;20090;-64
2023/09/04 13:49:25;;;;;;;3.77;1.90;;;;;;;35.32;24.67;100794.34;5074378;28;20024;-64
2023/09/04 13:51:51;;;;;;;3.07;2.13;;;;;;;35.17;25.98;100781.00;5074539;28;20413;-64
2023/09/04 13:54:16;;;;;;;2.47;1.60;;;;;;;34.88;25.64;100779.63;5074059;28;20037;-63
2023/09/04 13:56:44;;;;;;;1.83;1.67;;;;;;;33.47;26.45;100780.44;5074311;28;20078;-64
2023/09/04 13:59:10;;;;;;;2.45;2.15;;;;;;;33.26;27.05;100779.28;5074274;28;20050;-64
2023/09/04 14:01:35;;;;;;;2.10;1.90;;;;;;;32.83;28.02;100768.63;5074143;28;20384;-64
2023/09/04 14:04:00;;;;;;;3.30;2.13;;;;;;;32.60;28.12;100768.59;5074348;28;20499;-64
2023/09/04 14:06:26;;;;;;;2.47;1.77;;;;;;;32.23;28.54;100758.56;5074164;28;20036;-63
2023/09/04 14:08:51;;;;;;;3.30;2.00;;;;;;;31.83;29.12;100765.66;5073944;28;20028;-64
2023/09/04 14:11:18;;;;;;;3.27;1.97;;;;;;;31.79;28.99;100762.69;5073958;28;20076;-52
2023/09/04 14:13:44;;;;;;;2.22;1.70;;;;;;;31.16;29.79;100763.09;5074074;28;20502;-61
2023/09/04 14:16:09;;;;;;;2.43;1.90;;;;;;;30.89;30.71;100761.03;5073930;28;20039;-52
2023/09/04 14:18:35;;;;;;;2.97;1.98;;;;;;;31.03;30.48;100761.09;5073847;28;20088;-51
2023/09/04 14:21:00;;;;;;;2.93;2.00;;;;;;;30.67;30.03;100760.75;5073543;28;20029;-52
2023/09/04 14:23:27;;;;;;;6.63;2.00;;;;;;;30.76;33.68;100761.75;5073908;28;20037;-50
2023/09/04 14:25:52;;;;;;;2.90;1.75;;;;;;;30.70;31.54;100758.25;5073775;28;20491;-50
2023/09/04 14:28:18;;;;;;;4.43;2.08;;;;;;;30.50;30.35;100756.56;5073774;28;20040;-53
2023/09/04 14:30:44;;;;;;;2.00;1.80;;;;;;;30.38;30.26;100758.91;5073375;28;20037;-55
2023/09/04 14:33:09;;;;;;;2.30;1.95;;;;;;;30.33;29.44;100755.44;5073689;28;20041;-50
2023/09/04 14:35:36;;;;;;;5.15;2.20;;;;;;;30.21;29.85;100756.66;5073587;28;20484;-51
2023/09/04 14:38:02;;;;;;;2.50;2.03;;;;;;;30.15;32.48;100754.25;5073522;28;20044;-54
2023/09/04 14:40:34;;;;;;;3.53;1.85;;;;;;;29.85;30.46;100758.91;5073261;28;20340;-51
2023/09/04 14:43:01;;;;;;;2.17;1.60;;;;;;;29.95;30.18;100750.56;5073200;28;20067;-53
2023/09/04 14:45:31;;;;;;;2.17;1.73;;;;;;;29.92;29.72;100751.13;5073334;28;20032;-48
2023/09/04 14:47:57;;;;;;;5.40;1.77;;;;;;;29.76;31.40;100752.41;5073353;28;20111;-50
2023/09/04 14:50:24;;;;;;;2.15;1.70;;;;;;;29.77;29.95;100745.81;5073082;28;20115;-49
2023/09/04 14:52:51;;;;;;;2.97;1.77;;;;;;;29.73;29.44;100742.00;5073171;28;20036;-55
2023/09/04 14:55:18;;;;;;;2.97;1.83;;;;;;;29.63;31.49;100740.19;5073151;28;20112;-55
2023/09/04 14:57:44;;;;;;;2.35;1.80;;;;;;;29.70;30.30;100748.06;5073242;28;20044;-56
2023/09/04 15:00:09;;;;;;;3.00;1.92;;;;;;;29.70;30.67;100746.16;5072789;28;20052;-65
2023/09/04 15:02:35;;;;;;;2.33;2.10;;;;;;;29.71;29.52;100736.78;5073103;28;20039;-65
2023/09/04 15:05:00;;;;;;;2.03;1.63;;;;;;;29.73;29.55;100736.50;5072129;28;20036;-64
2023/09/04 15:07:25;;;;;;;1.85;1.67;;;;;;;29.62;29.38;100729.50;5071501;28;20113;-64
2023/09/04 15:09:51;;;;;;;2.15;1.73;;;;;;;29.52;30.14;100724.91;5072619;28;20051;-65
2023/09/04 15:12:16;;;;;;;4.90;2.33;;;;;;;29.56;30.19;100720.47;5072582;28;20040;-65
2023/09/04 15:14:42;;;;;;;3.20;2.15;;;;;;;29.58;29.93;100721.00;5072771;28;20032;-64
2023/09/04 15:17:07;;;;;;;2.75;1.63;;;;;;;29.63;29.50;100722.88;5072590;28;20690;-65
2023/09/04 15:19:32;;;;;;;1.92;1.70;;;;;;;29.61;29.44;100716.88;5072401;28;20043;-65
2023/09/04 15:21:58;;;;;;;2.55;1.65;;;;;;;29.43;29.95;100718.38;5072431;28;20484;-64
2023/09/04 15:24:24;;;;;;;2.35;1.40;;;;;;;29.52;30.25;100721.34;5072634;28;20043;-65
2023/09/04 15:26:49;;;;;;;5.43;2.10;;;;;;;29.43;29.34;100716.44;5064928;28;20036;-64
2023/09/04 15:29:15;;;;;;;1.98;1.33;;;;;;;29.41;29.30;100710.44;5062311;28;20029;-65
2023/09/04 15:31:40;;;;;;;2.90;1.77;;;;;;;29.45;28.86;100716.16;5060995;28;20179;-65
2023/09/04 15:34:06;;;;;;;2.13;1.80;;;;;;;29.40;28.75;100708.78;5062858;28;20123;-65
2023/09/04 15:36:31;;;;;;;2.70;1.90;;;;;;;29.39;29.12;100704.41;5061829;28;20071;-64
2023/09/04 15:38:57;;;;;;;2.00;1.80;;;;;;;29.37;29.40;100708.53;5061289;28;20020;-64
2023/09/04 15:41:23;;;;;;;2.42;1.83;;;;;;;29.38;28.89;100701.94;5062726;28;20071;-63
2023/09/04 15:43:49;;;;;;;3.72;1.83;;;;;;;29.38;28.68;100699.22;5061528;28;20112;-65